createdAt,value
2023-12-09T00:00:27.185Z,2.82
2023-12-09T00:01:33.778Z,2.74
2023-12-09T00:02:42.458Z,2.71
2023-12-09T00:03:50.743Z,2.72
2023-12-09T00:04:56.924Z,2.72
2023-12-09T00:06:03.584Z,2.73
2023-12-09T00:07:09.810Z,2.74
2023-12-09T00:08:16.444Z,2.71
2023-12-09T00:09:20.486Z,2.76
2023-12-09T00:10:29.268Z,2.79
2023-12-09T00:11:36.129Z,2.72
2023-12-09T00:12:43.860Z,2.69
2023-12-09T00:13:47.715Z,2.61
2023-12-09T00:14:51.604Z,2.64
2023-12-09T00:16:04.001Z,2.64
2023-12-09T00:17:08.953Z,2.64
2023-12-09T00:18:19.159Z,2.66
2023-12-09T00:19:25.905Z,2.71
2023-12-09T00:20:32.789Z,2.74
2023-12-09T00:21:38.641Z,2.72
2023-12-09T00:22:45.932Z,2.74
2023-12-09T00:23:54.614Z,2.80
2023-12-09T00:25:01.190Z,2.90
2023-12-09T00:26:05.779Z,3.00
2023-12-09T00:27:16.213Z,3.06
2023-12-09T00:28:20.153Z,3.12
2023-12-09T00:29:38.829Z,3.13
2023-12-09T00:30:43.912Z,3.10
2023-12-09T00:31:52.133Z,3.10
2023-12-09T00:32:59.444Z,3.11
2023-12-09T00:34:13.688Z,3.08
2023-12-09T00:35:18.993Z,2.99
2023-12-09T00:36:25.669Z,2.94
2023-12-09T00:37:30.871Z,2.90
2023-12-09T00:38:41.278Z,2.89
2023-12-09T00:39:56.067Z,2.83
2023-12-09T00:41:07.138Z,2.85
2023-12-09T00:42:12.651Z,2.82
2023-12-09T00:43:24.073Z,2.84
2023-12-09T00:44:31.631Z,2.81
2023-12-09T00:45:43.353Z,2.80
2023-12-09T00:46:50.471Z,2.82
2023-12-09T00:47:57.423Z,2.86
2023-12-09T00:49:04.000Z,2.87
2023-12-09T00:50:22.462Z,2.86
2023-12-09T00:51:28.488Z,2.83
2023-12-09T00:52:39.065Z,2.82
2023-12-09T00:53:43.745Z,2.87
2023-12-09T00:54:50.251Z,2.87
2023-12-09T00:55:54.207Z,2.88
2023-12-09T00:57:04.048Z,2.87
2023-12-09T00:58:10.573Z,2.80
2023-12-09T00:59:20.277Z,2.79
2023-12-09T01:00:26.988Z,2.74
2023-12-09T01:01:35.151Z,2.75
2023-12-09T01:02:40.288Z,2.79
2023-12-09T01:03:56.246Z,2.79
2023-12-09T01:05:02.576Z,2.80
2023-12-09T01:06:15.785Z,2.81
2023-12-09T01:07:22.406Z,2.82
2023-12-09T01:08:32.757Z,2.85
2023-12-09T01:09:39.552Z,2.87
2023-12-09T01:10:46.440Z,2.91
2023-12-09T01:11:57.349Z,2.90
2023-12-09T01:13:04.021Z,2.90
2023-12-09T01:14:10.515Z,2.92
2023-12-09T01:15:27.403Z,2.91
2023-12-09T01:16:34.227Z,2.93
2023-12-09T01:17:40.104Z,2.95
2023-12-09T01:18:44.042Z,2.92
2023-12-09T01:19:50.626Z,2.87
2023-12-09T01:20:56.422Z,2.85
2023-12-09T01:22:05.660Z,2.87
2023-12-09T01:23:09.595Z,2.86
2023-12-09T01:24:16.302Z,2.84
2023-12-09T01:25:20.325Z,2.78
2023-12-09T01:26:26.765Z,2.80
2023-12-09T01:27:33.731Z,2.82
2023-12-09T01:28:40.267Z,2.85
2023-12-09T01:29:44.744Z,2.87
2023-12-09T01:30:54.005Z,2.90
2023-12-09T01:32:00.256Z,2.91
2023-12-09T01:33:07.024Z,2.90
2023-12-09T01:34:11.118Z,2.92
2023-12-09T01:35:21.323Z,2.96
2023-12-09T01:36:25.415Z,2.97
2023-12-09T01:37:34.769Z,2.96
2023-12-09T01:38:38.662Z,2.99
2023-12-09T01:39:46.536Z,3.00
2023-12-09T01:40:54.883Z,3.00
2023-12-09T01:42:04.378Z,3.02
2023-12-09T01:43:10.612Z,3.03
2023-12-09T01:44:17.223Z,3.02
2023-12-09T01:45:21.815Z,3.02
2023-12-09T01:46:31.185Z,3.07
2023-12-09T01:47:39.711Z,3.09
2023-12-09T01:48:46.596Z,3.06
2023-12-09T01:49:51.279Z,3.08
2023-12-09T01:50:57.913Z,3.08
2023-12-09T01:52:03.709Z,3.12
2023-12-09T01:53:15.431Z,3.10
2023-12-09T01:54:19.495Z,3.11
2023-12-09T01:55:28.234Z,3.12
2023-12-09T01:56:32.480Z,3.14
2023-12-09T01:57:42.027Z,3.08
2023-12-09T01:58:45.959Z,3.07
2023-12-09T01:59:52.578Z,3.05
2023-12-09T02:00:57.153Z,3.07
2023-12-09T02:02:05.289Z,3.10
2023-12-09T02:03:09.353Z,3.06
2023-12-09T02:04:17.541Z,3.08
2023-12-09T02:05:24.629Z,3.11
2023-12-09T02:06:34.506Z,3.13
2023-12-09T02:07:38.382Z,3.13
2023-12-09T02:08:47.546Z,3.15
2023-12-09T02:09:51.826Z,3.16
2023-12-09T02:11:12.848Z,3.16
2023-12-09T02:12:33.151Z,3.15
2023-12-09T02:13:53.473Z,3.15
2023-12-09T02:15:06.701Z,3.04
2023-12-09T02:16:25.374Z,2.95
2023-12-09T02:17:40.016Z,2.92
2023-12-09T02:18:49.355Z,2.97
2023-12-09T02:19:54.819Z,3.01
2023-12-09T02:21:01.181Z,3.01
2023-12-09T02:22:09.784Z,3.03
2023-12-09T02:23:18.938Z,3.03
2023-12-09T02:24:25.942Z,3.06
2023-12-09T02:25:34.844Z,3.07
2023-12-09T02:26:41.292Z,3.06
2023-12-09T02:27:58.388Z,3.07
2023-12-09T02:29:09.438Z,3.09
2023-12-09T02:30:30.625Z,3.08
2023-12-09T02:31:38.626Z,3.10
2023-12-09T02:32:47.840Z,3.08
2023-12-09T02:33:52.680Z,3.07
2023-12-09T02:35:01.291Z,3.09
2023-12-09T02:36:11.759Z,3.12
2023-12-09T02:37:23.686Z,3.13
2023-12-09T02:38:38.892Z,3.14
2023-12-09T02:39:50.094Z,3.12
2023-12-09T02:40:54.404Z,3.09
2023-12-09T02:42:03.952Z,3.07
2023-12-09T02:43:08.403Z,3.09
2023-12-09T02:44:18.035Z,3.11
2023-12-09T02:45:22.266Z,3.10
2023-12-09T02:46:31.419Z,3.09
2023-12-09T02:47:38.086Z,3.09
2023-12-09T02:48:44.589Z,3.07
2023-12-09T02:49:53.530Z,3.10
2023-12-09T02:50:57.169Z,3.12
2023-12-09T02:52:02.873Z,3.11
2023-12-09T02:53:06.498Z,3.11
2023-12-09T02:54:15.632Z,3.08
2023-12-09T02:55:22.829Z,3.10
2023-12-09T02:56:29.307Z,3.11
2023-12-09T02:57:33.250Z,3.09
2023-12-09T02:58:39.773Z,3.08
2023-12-09T02:59:43.733Z,3.10
2023-12-09T03:00:52.826Z,3.13
2023-12-09T03:01:59.086Z,3.14
2023-12-09T03:03:05.684Z,3.16
2023-12-09T03:04:09.812Z,3.12
2023-12-09T03:05:18.781Z,3.13
2023-12-09T03:06:22.722Z,3.11
2023-12-09T03:07:31.559Z,3.13
2023-12-09T03:08:38.641Z,3.18
2023-12-09T03:09:50.745Z,3.21
2023-12-09T03:10:57.661Z,3.24
2023-12-09T03:12:04.640Z,3.23
2023-12-09T03:13:08.539Z,3.24
2023-12-09T03:14:17.532Z,3.22
2023-12-09T03:15:24.133Z,3.15
2023-12-09T03:16:32.557Z,3.13
2023-12-09T03:17:39.667Z,3.10
2023-12-09T03:18:46.274Z,3.03
2023-12-09T03:19:54.796Z,3.07
2023-12-09T03:21:01.425Z,3.05
2023-12-09T03:22:05.692Z,3.09
2023-12-09T03:23:12.120Z,3.12
2023-12-09T03:24:20.856Z,3.12
2023-12-09T03:25:26.654Z,3.15
2023-12-09T03:26:33.162Z,3.19
2023-12-09T03:27:39.646Z,3.21
2023-12-09T03:28:48.441Z,3.23
2023-12-09T03:29:54.483Z,3.17
2023-12-09T03:31:06.909Z,3.19
2023-12-09T03:32:10.820Z,3.22
2023-12-09T03:33:14.789Z,3.21
2023-12-09T03:34:21.385Z,3.20
2023-12-09T03:35:25.344Z,3.21
2023-12-09T03:36:30.989Z,3.22
2023-12-09T03:37:34.907Z,3.18
2023-12-09T03:38:41.455Z,3.14
2023-12-09T03:39:45.311Z,3.14
2023-12-09T03:40:56.933Z,3.18
2023-12-09T03:42:00.844Z,3.19
2023-12-09T03:43:12.057Z,3.22
2023-12-09T03:44:15.988Z,3.23
2023-12-09T03:45:19.924Z,3.18
2023-12-09T03:46:28.596Z,3.22
2023-12-09T03:47:32.536Z,3.15
2023-12-09T03:48:39.281Z,3.16
2023-12-09T03:49:45.807Z,3.15
2023-12-09T03:50:51.899Z,3.19
2023-12-09T03:52:00.104Z,3.16
2023-12-09T03:53:04.016Z,3.15
2023-12-09T03:54:10.598Z,3.16
2023-12-09T03:55:17.114Z,3.19
2023-12-09T03:56:29.265Z,3.20
2023-12-09T03:57:38.519Z,3.21
2023-12-09T03:58:45.081Z,3.19
2023-12-09T03:59:51.218Z,3.22
2023-12-09T04:00:57.775Z,3.21
2023-12-09T04:02:01.693Z,3.21
2023-12-09T04:03:17.247Z,3.24
2023-12-09T04:04:21.165Z,3.22
2023-12-09T04:05:27.820Z,3.15
2023-12-09T04:06:33.756Z,3.15
2023-12-09T04:07:42.430Z,3.18
2023-12-09T04:08:48.340Z,3.14
2023-12-09T04:09:57.845Z,3.14
2023-12-09T04:11:06.361Z,3.11
2023-12-09T04:12:17.719Z,3.16
2023-12-09T04:13:23.440Z,3.20
2023-12-09T04:14:30.308Z,3.15
2023-12-09T04:15:34.329Z,3.13
2023-12-09T04:16:40.916Z,3.16
2023-12-09T04:17:48.729Z,3.09
2023-12-09T04:18:57.904Z,3.13
2023-12-09T04:20:05.824Z,3.12
2023-12-09T04:21:12.582Z,3.12
2023-12-09T04:22:16.561Z,3.12
2023-12-09T04:23:22.983Z,3.14
2023-12-09T04:24:26.910Z,3.11
2023-12-09T04:25:35.380Z,3.14
2023-12-09T04:26:39.905Z,3.15
2023-12-09T04:27:53.628Z,3.17
2023-12-09T04:28:57.070Z,3.19
2023-12-09T04:30:04.703Z,3.19
2023-12-09T04:31:10.631Z,3.14
2023-12-09T04:32:17.107Z,3.09
2023-12-09T04:33:20.510Z,3.13
2023-12-09T04:34:27.048Z,3.16
2023-12-09T04:35:30.851Z,3.18
2023-12-09T04:36:40.186Z,3.20
2023-12-09T04:37:46.749Z,3.15
2023-12-09T04:38:54.421Z,3.12
2023-12-09T04:40:00.766Z,3.06
2023-12-09T04:41:08.027Z,3.10
2023-12-09T04:42:14.210Z,3.15
2023-12-09T04:43:23.340Z,3.12
2023-12-09T04:44:29.452Z,3.13
2023-12-09T04:45:38.498Z,3.17
2023-12-09T04:46:44.853Z,3.12
2023-12-09T04:47:54.849Z,3.12
2023-12-09T04:48:59.356Z,3.14
2023-12-09T04:50:10.539Z,3.16
2023-12-09T04:51:18.136Z,3.16
2023-12-09T04:52:22.025Z,3.21
2023-12-09T04:53:30.733Z,3.19
2023-12-09T04:54:34.511Z,3.21
2023-12-09T04:55:41.679Z,3.19
2023-12-09T04:56:45.574Z,3.17
2023-12-09T04:57:54.304Z,3.12
2023-12-09T04:59:02.182Z,3.11
2023-12-09T05:00:12.503Z,3.16
2023-12-09T05:01:18.744Z,3.12
2023-12-09T05:02:27.598Z,3.13
2023-12-09T05:03:34.894Z,3.15
2023-12-09T05:04:41.223Z,3.17
2023-12-09T05:05:47.752Z,3.15
2023-12-09T05:07:00.458Z,3.17
2023-12-09T05:08:07.895Z,3.19
2023-12-09T05:09:12.923Z,3.24
2023-12-09T05:10:20.823Z,3.23
2023-12-09T05:11:24.736Z,3.26
2023-12-09T05:12:31.571Z,3.22
2023-12-09T05:13:36.104Z,3.24
2023-12-09T05:14:45.158Z,3.23
2023-12-09T05:15:51.651Z,3.24
2023-12-09T05:16:58.297Z,3.27
2023-12-09T05:18:04.040Z,3.27
2023-12-09T05:19:07.826Z,3.26
2023-12-09T05:20:15.588Z,3.24
2023-12-09T05:21:18.893Z,3.25
2023-12-09T05:22:28.164Z,3.26
2023-12-09T05:23:34.760Z,3.23
2023-12-09T05:24:41.320Z,3.26
2023-12-09T05:25:45.558Z,3.27
2023-12-09T05:26:53.406Z,3.31
2023-12-09T05:27:57.300Z,3.34
2023-12-09T05:29:04.751Z,3.36
2023-12-09T05:30:14.997Z,3.37
2023-12-09T05:31:23.952Z,3.33
2023-12-09T05:32:29.986Z,3.35
2023-12-09T05:33:36.477Z,3.38
2023-12-09T05:34:43.193Z,3.41
2023-12-09T05:35:46.869Z,3.39
2023-12-09T05:36:53.371Z,3.44
2023-12-09T05:37:57.243Z,3.45
2023-12-09T05:39:03.811Z,3.47
2023-12-09T05:40:09.751Z,3.51
2023-12-09T05:41:19.649Z,3.51
2023-12-09T05:42:23.558Z,3.48
2023-12-09T05:43:33.204Z,3.51
2023-12-09T05:44:39.095Z,3.54
2023-12-09T05:45:50.358Z,3.56
2023-12-09T05:46:54.410Z,3.58
2023-12-09T05:48:01.493Z,3.61
2023-12-09T05:49:05.966Z,3.63
2023-12-09T05:50:13.853Z,3.55
2023-12-09T05:51:18.115Z,3.54
2023-12-09T05:52:25.886Z,3.52
2023-12-09T05:53:33.952Z,3.52
2023-12-09T05:54:47.771Z,3.56
2023-12-09T05:55:54.816Z,3.61
2023-12-09T05:57:11.791Z,3.61
2023-12-09T05:58:15.752Z,3.64
2023-12-09T05:59:22.284Z,3.66
2023-12-09T06:00:26.389Z,3.64
2023-12-09T06:01:35.911Z,3.64
2023-12-09T06:02:42.434Z,3.65
2023-12-09T06:03:46.329Z,3.70
2023-12-09T06:04:52.900Z,3.98
2023-12-09T06:05:59.753Z,4.44
2023-12-09T06:07:06.414Z,4.70
2023-12-09T06:08:10.394Z,4.86
2023-12-09T06:09:20.910Z,4.92
2023-12-09T06:10:24.826Z,4.94
2023-12-09T06:11:33.544Z,4.88
2023-12-09T06:12:37.701Z,4.77
2023-12-09T06:13:44.211Z,4.73
2023-12-09T06:14:51.162Z,4.62
2023-12-09T06:16:00.620Z,4.55
2023-12-09T06:17:10.080Z,4.46
2023-12-09T06:18:18.053Z,4.43
2023-12-09T06:19:22.054Z,4.25
2023-12-09T06:20:32.572Z,4.16
2023-12-09T06:21:36.500Z,4.17
2023-12-09T06:22:45.412Z,4.15
2023-12-09T06:23:49.443Z,3.99
2023-12-09T06:24:55.920Z,4.01
2023-12-09T06:25:59.739Z,4.01
2023-12-09T06:27:07.158Z,3.96
2023-12-09T06:28:13.301Z,3.88
2023-12-09T06:29:42.401Z,3.80
2023-12-09T06:30:48.801Z,3.82
2023-12-09T06:31:57.031Z,3.79
2023-12-09T06:33:03.697Z,3.76
2023-12-09T06:34:10.432Z,3.75
2023-12-09T06:35:17.364Z,3.80
2023-12-09T06:36:26.035Z,3.81
2023-12-09T06:37:29.934Z,3.83
2023-12-09T06:38:42.683Z,3.87
2023-12-09T06:39:46.642Z,3.88
2023-12-09T06:40:52.771Z,3.86
2023-12-09T06:41:56.729Z,3.80
2023-12-09T06:43:05.492Z,3.81
2023-12-09T06:44:12.490Z,3.83
2023-12-09T06:45:19.119Z,3.82
2023-12-09T06:46:23.093Z,3.86
2023-12-09T06:47:29.630Z,3.81
2023-12-09T06:48:38.852Z,3.83
2023-12-09T06:49:47.962Z,3.79
2023-12-09T06:50:54.218Z,3.76
2023-12-09T06:52:03.180Z,3.79
2023-12-09T06:53:14.576Z,3.79
2023-12-09T06:54:25.073Z,3.77
2023-12-09T06:55:29.010Z,3.80
2023-12-09T06:56:35.483Z,3.82
2023-12-09T06:57:39.433Z,3.85
2023-12-09T06:58:45.890Z,3.84
2023-12-09T06:59:49.757Z,3.85
2023-12-09T07:00:56.336Z,3.87
2023-12-09T07:02:00.280Z,3.84
2023-12-09T07:03:09.660Z,3.81
2023-12-09T07:04:16.374Z,3.75
2023-12-09T07:05:25.114Z,3.71
2023-12-09T07:06:30.780Z,3.70
2023-12-09T07:07:42.021Z,3.71
2023-12-09T07:08:46.049Z,3.72
2023-12-09T07:09:53.710Z,3.76
2023-12-09T07:11:00.767Z,3.74
2023-12-09T07:12:10.695Z,3.78
2023-12-09T07:13:16.690Z,3.70
2023-12-09T07:14:23.216Z,3.69
2023-12-09T07:15:29.399Z,3.69
2023-12-09T07:16:39.476Z,3.68
2023-12-09T07:17:43.519Z,3.67
2023-12-09T07:18:52.896Z,3.69
2023-12-09T07:20:02.684Z,3.66
2023-12-09T07:21:10.017Z,3.67
2023-12-09T07:22:13.959Z,3.67
2023-12-09T07:23:20.896Z,3.69
2023-12-09T07:24:25.639Z,3.65
2023-12-09T07:25:33.215Z,3.61
2023-12-09T07:26:37.160Z,3.62
2023-12-09T07:27:46.243Z,3.66
2023-12-09T07:28:50.465Z,3.65
2023-12-09T07:29:56.157Z,3.67
2023-12-09T07:31:04.943Z,3.66
2023-12-09T07:32:11.649Z,3.66
2023-12-09T07:33:15.655Z,3.67
2023-12-09T07:34:22.502Z,3.68
2023-12-09T07:35:32.060Z,3.62
2023-12-09T07:36:38.639Z,3.63
2023-12-09T07:37:43.341Z,3.63
2023-12-09T07:38:51.019Z,3.63
2023-12-09T07:39:55.389Z,3.62
2023-12-09T07:41:02.735Z,3.62
2023-12-09T07:42:06.686Z,3.58
2023-12-09T07:43:12.553Z,3.56
2023-12-09T07:44:16.469Z,3.56
2023-12-09T07:45:26.316Z,3.56
2023-12-09T07:46:33.812Z,3.54
2023-12-09T07:47:40.349Z,3.58
2023-12-09T07:48:46.785Z,3.62
2023-12-09T07:49:54.986Z,3.65
2023-12-09T07:51:02.315Z,3.67
2023-12-09T07:52:10.263Z,3.65
2023-12-09T07:53:16.405Z,3.66
2023-12-09T07:54:25.142Z,3.63
2023-12-09T07:55:31.676Z,3.69
2023-12-09T07:56:38.196Z,3.67
2023-12-09T07:57:45.167Z,3.66
2023-12-09T07:58:56.017Z,3.68
2023-12-09T07:59:59.859Z,3.67
2023-12-09T08:01:11.324Z,3.60
2023-12-09T08:02:17.560Z,3.58
2023-12-09T08:03:24.057Z,3.61
2023-12-09T08:04:27.981Z,3.60
2023-12-09T08:05:36.094Z,3.55
2023-12-09T08:06:43.328Z,3.56
2023-12-09T08:07:49.849Z,3.62
2023-12-09T08:08:53.477Z,3.65
2023-12-09T08:09:59.798Z,3.67
2023-12-09T08:11:06.993Z,3.69
2023-12-09T08:12:13.560Z,3.72
2023-12-09T08:13:21.481Z,3.76
2023-12-09T08:14:32.056Z,3.79
2023-12-09T08:15:38.723Z,3.72
2023-12-09T08:16:45.204Z,3.77
2023-12-09T08:17:52.187Z,3.75
2023-12-09T08:18:58.750Z,3.78
2023-12-09T08:20:10.318Z,3.77
2023-12-09T08:21:17.382Z,3.81
2023-12-09T08:22:24.012Z,3.87
2023-12-09T08:23:30.989Z,3.88
2023-12-09T08:24:37.927Z,3.88
2023-12-09T08:25:46.849Z,3.92
2023-12-09T08:26:56.818Z,3.87
2023-12-09T08:28:07.136Z,3.85
2023-12-09T08:29:13.088Z,3.89
2023-12-09T08:30:19.545Z,3.91
2023-12-09T08:31:26.171Z,3.91
2023-12-09T08:32:30.466Z,3.91
2023-12-09T08:33:40.114Z,3.91
2023-12-09T08:34:51.283Z,3.92
2023-12-09T08:36:03.274Z,3.91
2023-12-09T08:37:07.187Z,3.94
2023-12-09T08:38:16.340Z,3.97
2023-12-09T08:39:20.320Z,4.02
2023-12-09T08:40:26.870Z,4.03
2023-12-09T08:41:31.022Z,4.06
2023-12-09T08:42:40.290Z,4.06
2023-12-09T08:43:44.404Z,4.09
2023-12-09T08:44:53.449Z,4.07
2023-12-09T08:45:57.363Z,4.06
2023-12-09T08:47:03.898Z,4.05
2023-12-09T08:48:10.274Z,4.05
2023-12-09T08:49:16.910Z,4.08
2023-12-09T08:50:25.533Z,4.10
2023-12-09T08:51:34.796Z,4.13
2023-12-09T08:52:39.252Z,4.15
2023-12-09T08:53:48.566Z,4.19
2023-12-09T08:54:52.462Z,4.20
2023-12-09T08:55:58.945Z,4.17
2023-12-09T08:57:02.855Z,4.19
2023-12-09T08:58:09.325Z,4.19
2023-12-09T08:59:13.325Z,4.12
2023-12-09T09:00:27.417Z,4.16
2023-12-09T09:01:31.457Z,4.19
2023-12-09T09:02:42.023Z,4.21
2023-12-09T09:03:45.978Z,4.19
2023-12-09T09:04:52.518Z,4.23
2023-12-09T09:05:56.469Z,4.23
2023-12-09T09:07:05.130Z,4.27
2023-12-09T09:08:11.980Z,4.27
2023-12-09T09:09:24.180Z,4.29
2023-12-09T09:10:28.327Z,4.28
2023-12-09T09:11:34.769Z,4.28
2023-12-09T09:12:41.902Z,4.28
2023-12-09T09:13:51.049Z,4.31
2023-12-09T09:14:57.795Z,4.32
2023-12-09T09:16:07.221Z,4.29
2023-12-09T09:17:10.691Z,4.24
2023-12-09T09:18:17.563Z,4.27
2023-12-09T09:19:22.320Z,4.27
2023-12-09T09:20:31.003Z,4.21
2023-12-09T09:21:37.944Z,4.25
2023-12-09T09:22:47.093Z,4.28
2023-12-09T09:23:51.515Z,4.30
2023-12-09T09:25:00.725Z,4.29
2023-12-09T09:26:07.545Z,4.30
2023-12-09T09:27:14.025Z,4.31
2023-12-09T09:28:23.229Z,4.32
2023-12-09T09:29:32.045Z,4.28
2023-12-09T09:30:36.163Z,4.29
2023-12-09T09:31:44.760Z,4.31
2023-12-09T09:32:51.469Z,4.34
2023-12-09T09:33:58.339Z,4.32
2023-12-09T09:35:02.491Z,4.34
2023-12-09T09:36:11.027Z,4.31
2023-12-09T09:37:18.506Z,4.32
2023-12-09T09:38:27.769Z,4.35
2023-12-09T09:39:34.715Z,4.37
2023-12-09T09:40:46.357Z,4.35
2023-12-09T09:42:04.733Z,4.35
2023-12-09T09:43:23.925Z,4.61
2023-12-09T09:44:30.371Z,4.91
2023-12-09T09:45:37.591Z,5.25
2023-12-09T09:46:46.264Z,5.57
2023-12-09T09:47:54.294Z,5.67
2023-12-09T09:49:03.753Z,5.71
2023-12-09T09:50:14.283Z,5.69
2023-12-09T09:51:29.663Z,5.63
2023-12-09T09:52:40.170Z,5.55
2023-12-09T09:53:57.757Z,5.35
2023-12-09T09:55:08.706Z,5.29
2023-12-09T09:56:19.893Z,5.25
2023-12-09T09:57:31.960Z,5.15
2023-12-09T09:58:38.838Z,5.11
2023-12-09T09:59:46.140Z,5.08
2023-12-09T10:00:58.583Z,5.00
2023-12-09T10:02:08.775Z,4.90
2023-12-09T10:03:15.823Z,4.88
2023-12-09T10:04:24.953Z,4.88
2023-12-09T10:05:31.499Z,4.84
2023-12-09T10:06:39.826Z,4.81
2023-12-09T10:07:46.432Z,4.77
2023-12-09T10:08:52.939Z,4.81
2023-12-09T10:10:08.072Z,4.82
2023-12-09T10:11:11.915Z,4.75
2023-12-09T10:12:21.082Z,4.72
2023-12-09T10:13:27.365Z,4.74
2023-12-09T10:14:31.193Z,4.74
2023-12-09T10:15:39.155Z,4.75
2023-12-09T10:16:43.804Z,4.77
2023-12-09T10:17:50.446Z,4.76
2023-12-09T10:18:58.085Z,4.71
2023-12-09T10:20:07.192Z,4.73
2023-12-09T10:21:11.192Z,4.69
2023-12-09T10:22:20.593Z,4.68
2023-12-09T10:23:32.926Z,4.69
2023-12-09T10:24:49.884Z,4.71
2023-12-09T10:25:54.588Z,4.66
2023-12-09T10:27:00.164Z,4.68
2023-12-09T10:28:08.941Z,4.72
2023-12-09T10:29:18.024Z,4.74
2023-12-09T10:30:28.346Z,4.76
2023-12-09T10:31:37.761Z,4.78
2023-12-09T10:32:42.368Z,4.78
2023-12-09T10:33:49.072Z,4.80
2023-12-09T10:34:56.392Z,4.74
2023-12-09T10:36:06.010Z,4.74
2023-12-09T10:37:10.517Z,4.77
2023-12-09T10:38:20.436Z,4.78
2023-12-09T10:39:26.992Z,4.80
2023-12-09T10:40:39.860Z,4.76
2023-12-09T10:41:47.483Z,4.75
2023-12-09T10:42:54.365Z,4.75
2023-12-09T10:44:03.849Z,4.76
2023-12-09T10:45:13.583Z,4.78
2023-12-09T10:46:17.430Z,4.74
2023-12-09T10:47:23.960Z,4.70
2023-12-09T10:48:30.441Z,4.66
2023-12-09T10:49:40.609Z,4.71
2023-12-09T10:50:46.254Z,4.76
2023-12-09T10:51:52.783Z,4.75
2023-12-09T10:52:59.102Z,4.76
2023-12-09T10:54:08.235Z,4.76
2023-12-09T10:55:12.264Z,4.80
2023-12-09T10:56:22.921Z,4.83
2023-12-09T10:57:27.530Z,4.84
2023-12-09T10:58:38.576Z,4.82
2023-12-09T10:59:45.634Z,4.84
2023-12-09T11:00:54.608Z,4.84
2023-12-09T11:02:02.847Z,4.84
2023-12-09T11:03:12.885Z,4.88
2023-12-09T11:04:17.262Z,4.92
2023-12-09T11:05:27.508Z,4.92
2023-12-09T11:06:36.064Z,4.94
2023-12-09T11:07:45.597Z,4.98
2023-12-09T11:08:53.203Z,5.00
2023-12-09T11:10:02.313Z,4.99
2023-12-09T11:11:09.487Z,4.89
2023-12-09T11:12:31.042Z,4.97
2023-12-09T11:13:38.894Z,5.01
2023-12-09T11:14:50.193Z,5.03
2023-12-09T11:16:12.142Z,5.22
2023-12-09T11:17:37.695Z,5.63
2023-12-09T11:18:54.091Z,5.99
2023-12-09T11:20:01.924Z,6.07
2023-12-09T11:21:09.705Z,6.16
2023-12-09T11:22:17.570Z,6.14
2023-12-09T11:23:21.947Z,6.13
2023-12-09T11:24:34.580Z,6.06
2023-12-09T11:25:41.797Z,6.00
2023-12-09T11:26:49.604Z,5.91
2023-12-09T11:27:54.936Z,5.81
2023-12-09T11:29:00.390Z,5.75
2023-12-09T11:30:31.710Z,5.70
2023-12-09T11:31:37.965Z,5.72
2023-12-09T11:32:45.522Z,5.68
2023-12-09T11:33:52.887Z,5.64
2023-12-09T11:35:00.749Z,5.63
2023-12-09T11:36:09.512Z,5.59
2023-12-09T11:37:20.529Z,5.51
2023-12-09T11:38:26.175Z,5.47
2023-12-09T11:39:33.093Z,5.44
2023-12-09T11:40:39.524Z,5.43
2023-12-09T11:41:50.217Z,5.45
2023-12-09T11:42:55.551Z,5.32
2023-12-09T11:44:03.394Z,5.35
2023-12-09T11:45:11.655Z,5.38
2023-12-09T11:46:23.156Z,5.39
2023-12-09T11:47:28.760Z,5.41
2023-12-09T11:48:36.116Z,5.44
2023-12-09T11:49:41.277Z,5.35
2023-12-09T11:50:47.844Z,5.40
2023-12-09T11:51:51.709Z,5.38
2023-12-09T11:53:00.439Z,5.42
2023-12-09T11:54:06.939Z,5.44
2023-12-09T11:55:18.616Z,5.43
2023-12-09T11:56:25.645Z,5.44
2023-12-09T11:57:35.889Z,5.45
2023-12-09T11:58:41.977Z,5.41
2023-12-09T11:59:50.955Z,5.43
2023-12-09T12:00:57.904Z,5.39
2023-12-09T12:02:04.439Z,5.39
2023-12-09T12:03:11.151Z,5.42
2023-12-09T12:04:19.982Z,5.46
2023-12-09T12:05:26.272Z,5.49
2023-12-09T12:06:34.214Z,5.53
2023-12-09T12:07:41.353Z,5.54
2023-12-09T12:08:52.857Z,5.52
2023-12-09T12:09:56.841Z,5.51
2023-12-09T12:11:03.078Z,5.52
2023-12-09T12:12:12.798Z,5.52
2023-12-09T12:13:17.370Z,5.52
2023-12-09T12:14:28.218Z,5.51
2023-12-09T12:15:32.379Z,5.53
2023-12-09T12:16:41.680Z,5.50
2023-12-09T12:17:45.884Z,5.54
2023-12-09T12:18:52.848Z,5.57
2023-12-09T12:19:59.275Z,5.52
2023-12-09T12:21:07.060Z,5.56
2023-12-09T12:22:11.153Z,5.57
2023-12-09T12:23:29.888Z,5.57
2023-12-09T12:24:42.315Z,5.61
2023-12-09T12:25:49.047Z,5.51
2023-12-09T12:26:56.972Z,5.51
2023-12-09T12:28:05.991Z,5.48
2023-12-09T12:29:18.152Z,5.47
2023-12-09T12:30:25.877Z,5.49
2023-12-09T12:31:35.236Z,5.50
2023-12-09T12:32:47.185Z,5.51
2023-12-09T12:33:53.338Z,5.55
2023-12-09T12:35:00.098Z,5.56
2023-12-09T12:36:05.999Z,5.59
2023-12-09T12:37:12.621Z,5.63
2023-12-09T12:38:20.038Z,5.65
2023-12-09T12:39:29.403Z,5.68
2023-12-09T12:40:35.835Z,5.70
2023-12-09T12:41:48.897Z,5.68
2023-12-09T12:42:55.588Z,5.70
2023-12-09T12:44:02.643Z,5.67
2023-12-09T12:45:18.717Z,5.69
2023-12-09T12:46:29.801Z,5.70
2023-12-09T12:47:34.704Z,5.70
2023-12-09T12:48:46.499Z,5.71
2023-12-09T12:49:50.684Z,5.70
2023-12-09T12:50:59.723Z,5.69
2023-12-09T12:52:04.633Z,5.69
2023-12-09T12:53:08.430Z,5.71
2023-12-09T12:54:14.550Z,5.72
2023-12-09T12:55:21.169Z,5.77
2023-12-09T12:56:31.315Z,5.75
2023-12-09T12:57:40.162Z,5.75
2023-12-09T12:58:46.868Z,5.78
2023-12-09T12:59:51.324Z,5.80
2023-12-09T13:01:00.131Z,5.80
2023-12-09T13:02:04.682Z,5.83
2023-12-09T13:03:11.469Z,5.81
2023-12-09T13:04:18.273Z,5.84
2023-12-09T13:05:24.958Z,5.86
2023-12-09T13:06:29.092Z,5.82
2023-12-09T13:07:35.782Z,5.87
2023-12-09T13:08:43.970Z,5.93
2023-12-09T13:09:53.006Z,5.94
2023-12-09T13:11:00.401Z,5.98
2023-12-09T13:12:13.786Z,6.03
2023-12-09T13:13:17.837Z,6.04
2023-12-09T13:14:29.748Z,6.04
2023-12-09T13:15:34.475Z,6.09
2023-12-09T13:16:41.303Z,6.13
2023-12-09T13:17:45.730Z,6.14
2023-12-09T13:18:54.159Z,6.12
2023-12-09T13:20:00.867Z,6.13
2023-12-09T13:21:10.479Z,6.15
2023-12-09T13:22:14.580Z,6.17
2023-12-09T13:23:24.274Z,6.21
2023-12-09T13:24:28.343Z,6.23
2023-12-09T13:25:36.153Z,6.28
2023-12-09T13:26:40.193Z,6.30
2023-12-09T13:27:47.218Z,6.35
2023-12-09T13:28:51.291Z,6.37
2023-12-09T13:30:01.344Z,6.37
2023-12-09T13:31:11.066Z,6.41
2023-12-09T13:32:15.120Z,6.46
2023-12-09T13:33:24.429Z,6.41
2023-12-09T13:34:28.536Z,6.43
2023-12-09T13:35:37.775Z,6.46
2023-12-09T13:36:41.277Z,6.49
2023-12-09T13:37:49.359Z,6.47
2023-12-09T13:38:55.895Z,6.44
2023-12-09T13:40:08.462Z,6.46
2023-12-09T13:41:12.507Z,6.45
2023-12-09T13:42:19.139Z,6.45
2023-12-09T13:43:23.148Z,6.41
2023-12-09T13:44:29.712Z,6.39
2023-12-09T13:45:37.417Z,6.40
2023-12-09T13:46:44.138Z,6.39
2023-12-09T13:47:53.523Z,6.42
2023-12-09T13:49:02.677Z,6.41
2023-12-09T13:50:09.032Z,6.34
2023-12-09T13:51:18.445Z,6.34
2023-12-09T13:52:31.052Z,6.28
2023-12-09T13:53:40.358Z,6.30
2023-12-09T13:54:49.883Z,6.32
2023-12-09T13:56:00.796Z,6.28
2023-12-09T13:57:05.149Z,6.22
2023-12-09T13:58:11.794Z,6.27
2023-12-09T13:59:18.837Z,6.26
2023-12-09T14:00:25.623Z,6.29
2023-12-09T14:01:35.916Z,6.29
2023-12-09T14:02:44.642Z,6.24
2023-12-09T14:03:49.746Z,6.25
2023-12-09T14:04:56.899Z,6.25
2023-12-09T14:06:01.071Z,6.28
2023-12-09T14:07:15.101Z,6.23
2023-12-09T14:08:19.158Z,6.23
2023-12-09T14:09:26.061Z,6.20
2023-12-09T14:10:35.609Z,6.20
2023-12-09T14:11:40.052Z,6.10
2023-12-09T14:12:48.966Z,6.14
2023-12-09T14:13:56.451Z,6.13
2023-12-09T14:15:08.923Z,6.11
2023-12-09T14:16:15.232Z,6.12
2023-12-09T14:17:25.007Z,6.12
2023-12-09T14:18:29.455Z,6.10
2023-12-09T14:19:36.211Z,6.10
2023-12-09T14:20:40.290Z,6.09
2023-12-09T14:21:46.991Z,6.12
2023-12-09T14:22:54.651Z,6.15
2023-12-09T14:24:01.217Z,6.10
2023-12-09T14:25:06.718Z,6.06
2023-12-09T14:26:16.517Z,6.07
2023-12-09T14:27:22.879Z,6.04
2023-12-09T14:28:29.485Z,6.04
2023-12-09T14:29:33.466Z,5.98
2023-12-09T14:30:39.992Z,5.98
2023-12-09T14:31:44.025Z,6.02
2023-12-09T14:32:53.770Z,6.04
2023-12-09T14:33:58.126Z,6.00
2023-12-09T14:35:05.077Z,6.00
2023-12-09T14:36:11.017Z,6.02
2023-12-09T14:37:17.604Z,5.97
2023-12-09T14:38:24.291Z,5.99
2023-12-09T14:39:31.321Z,5.99
2023-12-09T14:40:38.347Z,5.96
2023-12-09T14:41:46.445Z,5.95
2023-12-09T14:42:53.599Z,5.99
2023-12-09T14:44:06.086Z,5.99
2023-12-09T14:45:12.364Z,6.02
2023-12-09T14:46:19.306Z,5.94
2023-12-09T14:47:23.722Z,5.95
2023-12-09T14:48:32.527Z,5.95
2023-12-09T14:49:40.921Z,5.94
2023-12-09T14:50:45.533Z,5.92
2023-12-09T14:51:52.201Z,5.87
2023-12-09T14:52:56.191Z,5.84
2023-12-09T14:54:09.103Z,5.80
2023-12-09T14:55:13.403Z,5.81
2023-12-09T14:56:20.550Z,5.79
2023-12-09T14:57:26.253Z,5.77
2023-12-09T14:58:34.651Z,5.74
2023-12-09T14:59:39.915Z,5.74